sensor_id;sensor_type;location;lat;lon;timestamp;pressure;altitude;pressure_sealevel;temperature;humidity
15263;BME280;7733;51.554;13.590;2023-04-25T00:01:40;99635.41;;;9.52;73.61
15263;BME280;7733;51.554;13.590;2023-04-25T00:04:07;99634.59;;;9.49;73.86
15263;BME280;7733;51.554;13.590;2023-04-25T00:06:34;99628.63;;;9.81;72.64
15263;BME280;7733;51.554;13.590;2023-04-25T00:09:03;99633.91;;;9.42;74.16
15263;BME280;7733;51.554;13.590;2023-04-25T00:11:29;99625.16;;;9.43;74.47
15263;BME280;7733;51.554;13.590;2023-04-25T00:13:56;99627.94;;;9.74;73.10
15263;BME280;7733;51.554;13.590;2023-04-25T00:16:22;99626.03;;;9.40;73.83
15263;BME280;7733;51.554;13.590;2023-04-25T00:18:49;99625.19;;;9.41;73.91
15263;BME280;7733;51.554;13.590;2023-04-25T00:21:20;99623.59;;;9.33;74.14
15263;BME280;7733;51.554;13.590;2023-04-25T00:23:46;99621.31;;;9.58;73.00
15263;BME280;7733;51.554;13.590;2023-04-25T00:26:13;99621.41;;;9.53;73.44
15263;BME280;7733;51.554;13.590;2023-04-25T00:28:40;99610.97;;;9.52;73.19
15263;BME280;7733;51.554;13.590;2023-04-25T00:31:06;99618.91;;;9.49;73.54
15263;BME280;7733;51.554;13.590;2023-04-25T00:33:32;99626.88;;;9.83;72.02
15263;BME280;7733;51.554;13.590;2023-04-25T00:35:58;99610.38;;;9.77;72.02
15263;BME280;7733;51.554;13.590;2023-04-25T00:38:23;99616.44;;;9.81;71.56
15263;BME280;7733;51.554;13.590;2023-04-25T00:40:49;99607.09;;;10.06;70.19
15263;BME280;7733;51.554;13.590;2023-04-25T00:43:15;99601.16;;;9.98;70.81
15263;BME280;7733;51.554;13.590;2023-04-25T00:45:43;99607.88;;;9.73;71.68
15263;BME280;7733;51.554;13.590;2023-04-25T00:48:09;99607.88;;;9.73;71.25
15263;BME280;7733;51.554;13.590;2023-04-25T00:50:36;99602.56;;;9.76;71.83
15263;BME280;7733;51.554;13.590;2023-04-25T00:53:02;99611.75;;;9.94;70.50
15263;BME280;7733;51.554;13.590;2023-04-25T00:55:30;99614.88;;;9.72;71.10
15263;BME280;7733;51.554;13.590;2023-04-25T00:57:57;99610.53;;;9.71;71.51
15263;BME280;7733;51.554;13.590;2023-04-25T01:00:23;99613.94;;;9.75;71.20
15263;BME280;7733;51.554;13.590;2023-04-25T01:02:49;99608.28;;;9.55;71.69
15263;BME280;7733;51.554;13.590;2023-04-25T01:05:15;99605.06;;;9.43;72.63
15263;BME280;7733;51.554;13.590;2023-04-25T01:07:41;99610.38;;;9.39;72.25
15263;BME280;7733;51.554;13.590;2023-04-25T01:10:08;99604.09;;;9.48;72.24
15263;BME280;7733;51.554;13.590;2023-04-25T01:12:34;99600.72;;;9.42;72.86
15263;BME280;7733;51.554;13.590;2023-04-25T01:15:00;99607.00;;;9.34;72.72
15263;BME280;7733;51.554;13.590;2023-04-25T01:17:26;99602.09;;;9.19;73.50
15263;BME280;7733;51.554;13.590;2023-04-25T01:19:53;99597.88;;;9.52;72.07
15263;BME280;7733;51.554;13.590;2023-04-25T01:22:19;99608.84;;;9.30;73.23
15263;BME280;7733;51.554;13.590;2023-04-25T01:24:45;99608.81;;;9.70;71.75
15263;BME280;7733;51.554;13.590;2023-04-25T01:27:11;99603.16;;;9.50;71.80
15263;BME280;7733;51.554;13.590;2023-04-25T01:29:37;99595.59;;;9.75;71.39
15263;BME280;7733;51.554;13.590;2023-04-25T01:32:04;99596.81;;;9.62;71.97
15263;BME280;7733;51.554;13.590;2023-04-25T01:34:30;99597.41;;;9.73;71.45
15263;BME280;7733;51.554;13.590;2023-04-25T01:36:56;99600.00;;;9.73;71.32
15263;BME280;7733;51.554;13.590;2023-04-25T01:39:25;99606.19;;;9.70;71.53
15263;BME280;7733;51.554;13.590;2023-04-25T01:41:50;99594.31;;;9.56;72.33
15263;BME280;7733;51.554;13.590;2023-04-25T01:44:16;99602.78;;;9.67;72.19
15263;BME280;7733;51.554;13.590;2023-04-25T01:46:42;99601.06;;;9.27;73.38
15263;BME280;7733;51.554;13.590;2023-04-25T01:49:08;99599.00;;;9.40;72.77
15263;BME280;7733;51.554;13.590;2023-04-25T01:51:33;99592.59;;;9.55;72.48
15263;BME280;7733;51.554;13.590;2023-04-25T01:54:00;99600.16;;;9.28;74.16
15263;BME280;7733;51.554;13.590;2023-04-25T01:56:31;99600.28;;;9.22;74.32
15263;BME280;7733;51.554;13.590;2023-04-25T01:58:57;99602.22;;;9.12;74.45
15263;BME280;7733;51.554;13.590;2023-04-25T02:01:23;99598.28;;;9.33;73.70
15263;BME280;7733;51.554;13.590;2023-04-25T02:03:49;99600.81;;;9.38;73.65
15263;BME280;7733;51.554;13.590;2023-04-25T02:06:15;99599.22;;;9.31;74.01
15263;BME280;7733;51.554;13.590;2023-04-25T02:08:40;99611.72;;;9.17;74.83
15263;BME280;7733;51.554;13.590;2023-04-25T02:11:06;99599.28;;;9.28;74.19
15263;BME280;7733;51.554;13.590;2023-04-25T02:13:32;99606.81;;;9.43;73.54
15263;BME280;7733;51.554;13.590;2023-04-25T02:15:57;99611.53;;;9.66;72.22
15263;BME280;7733;51.554;13.590;2023-04-25T02:18:23;99609.06;;;9.58;72.83
15263;BME280;7733;51.554;13.590;2023-04-25T02:20:49;99603.19;;;9.49;72.73
15263;BME280;7733;51.554;13.590;2023-04-25T02:23:15;99609.66;;;9.32;74.34
15263;BME280;7733;51.554;13.590;2023-04-25T02:25:41;99606.06;;;9.36;73.85
15263;BME280;7733;51.554;13.590;2023-04-25T02:28:07;99604.03;;;9.10;75.96
15263;BME280;7733;51.554;13.590;2023-04-25T02:30:33;99603.28;;;9.04;75.78
15263;BME280;7733;51.554;13.590;2023-04-25T02:32:59;99605.53;;;9.22;75.84
15263;BME280;7733;51.554;13.590;2023-04-25T02:35:24;99606.22;;;8.89;77.69
15263;BME280;7733;51.554;13.590;2023-04-25T02:37:50;99606.34;;;8.82;78.88
15263;BME280;7733;51.554;13.590;2023-04-25T02:40:16;99600.84;;;8.95;79.27
15263;BME280;7733;51.554;13.590;2023-04-25T02:42:41;99604.19;;;9.03;78.25
15263;BME280;7733;51.554;13.590;2023-04-25T02:45:08;99600.47;;;9.13;78.45
15263;BME280;7733;51.554;13.590;2023-04-25T02:47:34;99600.72;;;9.01;79.02
15263;BME280;7733;51.554;13.590;2023-04-25T02:49:59;99594.25;;;9.19;79.06
15263;BME280;7733;51.554;13.590;2023-04-25T02:52:25;99596.97;;;9.14;79.51
15263;BME280;7733;51.554;13.590;2023-04-25T02:54:51;99592.25;;;8.90;80.81
15263;BME280;7733;51.554;13.590;2023-04-25T02:57:17;99592.78;;;9.05;80.30
15263;BME280;7733;51.554;13.590;2023-04-25T02:59:42;99593.97;;;8.91;80.58
15263;BME280;7733;51.554;13.590;2023-04-25T03:02:09;99586.63;;;9.08;80.43
15263;BME280;7733;51.554;13.590;2023-04-25T03:04:35;99583.06;;;9.12;80.00
15263;BME280;7733;51.554;13.590;2023-04-25T03:07:01;99592.03;;;8.99;80.47
15263;BME280;7733;51.554;13.590;2023-04-25T03:09:27;99592.00;;;9.00;80.56
15263;BME280;7733;51.554;13.590;2023-04-25T03:11:52;99596.31;;;9.04;80.40
15263;BME280;7733;51.554;13.590;2023-04-25T03:14:18;99585.84;;;9.04;80.82
15263;BME280;7733;51.554;13.590;2023-04-25T03:16:44;99582.38;;;9.04;80.16
15263;BME280;7733;51.554;13.590;2023-04-25T03:19:10;99587.56;;;9.05;80.08
15263;BME280;7733;51.554;13.590;2023-04-25T03:21:36;99587.59;;;9.04;80.55
15263;BME280;7733;51.554;13.590;2023-04-25T03:24:04;99587.31;;;8.74;81.53
15263;BME280;7733;51.554;13.590;2023-04-25T03:26:30;99583.69;;;8.81;81.18
15263;BME280;7733;51.554;13.590;2023-04-25T03:28:56;99583.72;;;8.78;81.59
15263;BME280;7733;51.554;13.590;2023-04-25T03:31:22;99586.47;;;8.72;81.92
15263;BME280;7733;51.554;13.590;2023-04-25T03:33:48;99580.72;;;8.98;80.54
15263;BME280;7733;51.554;13.590;2023-04-25T03:36:13;99583.44;;;8.94;80.96
15263;BME280;7733;51.554;13.590;2023-04-25T03:38:39;99591.81;;;8.68;81.79
15263;BME280;7733;51.554;13.590;2023-04-25T03:41:06;99583.19;;;8.63;81.96
15263;BME280;7733;51.554;13.590;2023-04-25T03:43:33;99589.75;;;8.83;80.99
15263;BME280;7733;51.554;13.590;2023-04-25T03:45:58;99591.34;;;8.46;82.49
15263;BME280;7733;51.554;13.590;2023-04-25T03:48:26;99592.19;;;8.48;82.84
15263;BME280;7733;51.554;13.590;2023-04-25T03:50:53;99598.44;;;8.38;83.76
15263;BME280;7733;51.554;13.590;2023-04-25T03:53:19;99598.28;;;8.47;83.21
15263;BME280;7733;51.554;13.590;2023-04-25T03:55:45;99598.56;;;8.30;84.43
15263;BME280;7733;51.554;13.590;2023-04-25T03:58:11;99600.97;;;8.44;84.14
15263;BME280;7733;51.554;13.590;2023-04-25T04:00:36;99600.00;;;8.48;84.12
15263;BME280;7733;51.554;13.590;2023-04-25T04:03:02;99606.78;;;8.07;85.83
15263;BME280;7733;51.554;13.590;2023-04-25T04:05:28;99599.47;;;8.28;84.82
15263;BME280;7733;51.554;13.590;2023-04-25T04:07:54;99603.91;;;8.22;84.52
15263;BME280;7733;51.554;13.590;2023-04-25T04:10:21;99600.31;;;8.30;84.22
15263;BME280;7733;51.554;13.590;2023-04-25T04:12:46;99606.56;;;8.21;84.90
15263;BME280;7733;51.554;13.590;2023-04-25T04:15:12;99608.28;;;8.20;85.65
15263;BME280;7733;51.554;13.590;2023-04-25T04:17:38;99606.91;;;8.52;83.36
15263;BME280;7733;51.554;13.590;2023-04-25T04:20:05;99602.88;;;8.31;84.13
15263;BME280;7733;51.554;13.590;2023-04-25T04:22:32;99605.38;;;8.42;83.40
15263;BME280;7733;51.554;13.590;2023-04-25T04:24:57;99601.75;;;8.47;83.15
15263;BME280;7733;51.554;13.590;2023-04-25T04:27:23;99605.31;;;8.45;83.09
15263;BME280;7733;51.554;13.590;2023-04-25T04:29:49;99605.91;;;8.08;84.65
15263;BME280;7733;51.554;13.590;2023-04-25T04:32:17;99609.41;;;8.07;85.08
15263;BME280;7733;51.554;13.590;2023-04-25T04:34:43;99608.72;;;7.94;85.42
15263;BME280;7733;51.554;13.590;2023-04-25T04:37:10;99612.72;;;8.15;84.11
15263;BME280;7733;51.554;13.590;2023-04-25T04:39:36;99614.97;;;7.86;86.08
15263;BME280;7733;51.554;13.590;2023-04-25T04:42:02;99614.72;;;8.01;84.90
15263;BME280;7733;51.554;13.590;2023-04-25T04:44:29;99619.84;;;8.07;85.16
15263;BME280;7733;51.554;13.590;2023-04-25T04:46:58;99620.06;;;8.47;82.57
15263;BME280;7733;51.554;13.590;2023-04-25T04:49:24;99616.69;;;8.42;82.48
15263;BME280;7733;51.554;13.590;2023-04-25T04:51:50;99616.03;;;8.27;82.34
15263;BME280;7733;51.554;13.590;2023-04-25T04:54:16;99615.81;;;8.42;81.54
15263;BME280;7733;51.554;13.590;2023-04-25T04:56:42;99619.81;;;8.09;83.12
15263;BME280;7733;51.554;13.590;2023-04-25T04:59:08;99628.44;;;8.14;82.48
15263;BME280;7733;51.554;13.590;2023-04-25T05:01:34;99625.44;;;7.84;83.41
15263;BME280;7733;51.554;13.590;2023-04-25T05:04:01;99616.03;;;8.27;81.89
15263;BME280;7733;51.554;13.590;2023-04-25T05:06:28;99623.97;;;8.19;81.64
15263;BME280;7733;51.554;13.590;2023-04-25T05:08:59;99631.91;;;8.14;81.69
15263;BME280;7733;51.554;13.590;2023-04-25T05:11:25;99624.97;;;8.13;81.62
15263;BME280;7733;51.554;13.590;2023-04-25T05:13:54;99630.56;;;8.44;80.31
15263;BME280;7733;51.554;13.590;2023-04-25T05:16:20;99628.47;;;8.12;80.44
15263;BME280;7733;51.554;13.590;2023-04-25T05:18:47;99633.59;;;8.17;80.50
15263;BME280;7733;51.554;13.590;2023-04-25T05:21:12;99632.78;;;8.13;80.44
15263;BME280;7733;51.554;13.590;2023-04-25T05:23:38;99630.00;;;8.26;79.77
15263;BME280;7733;51.554;13.590;2023-04-25T05:26:04;99637.00;;;8.23;79.99
15263;BME280;7733;51.554;13.590;2023-04-25T05:28:30;99633.44;;;8.28;79.77
15263;BME280;7733;51.554;13.590;2023-04-25T05:30:56;99635.03;;;8.38;79.05
15263;BME280;7733;51.554;13.590;2023-04-25T05:33:22;99635.16;;;8.29;79.36
15263;BME280;7733;51.554;13.590;2023-04-25T05:35:49;99628.00;;;8.40;78.42
15263;BME280;7733;51.554;13.590;2023-04-25T05:38:15;99631.41;;;8.46;78.81
15263;BME280;7733;51.554;13.590;2023-04-25T05:40:41;99630.41;;;8.52;77.95
15263;BME280;7733;51.554;13.590;2023-04-25T05:43:06;99638.47;;;8.41;78.90
15263;BME280;7733;51.554;13.590;2023-04-25T05:45:32;99639.84;;;8.62;77.88
15263;BME280;7733;51.554;13.590;2023-04-25T05:47:58;99642.31;;;8.70;77.31
15263;BME280;7733;51.554;13.590;2023-04-25T05:50:24;99634.53;;;8.67;76.97
15263;BME280;7733;51.554;13.590;2023-04-25T05:52:50;99641.94;;;8.90;77.25
15263;BME280;7733;51.554;13.590;2023-04-25T05:55:16;99647.91;;;8.95;76.05
15263;BME280;7733;51.554;13.590;2023-04-25T05:57:41;99644.72;;;8.79;76.19
15263;BME280;7733;51.554;13.590;2023-04-25T06:00:12;99643.22;;;9.12;76.75
15263;BME280;7733;51.554;13.590;2023-04-25T06:02:38;99644.09;;;9.12;75.71
15263;BME280;7733;51.554;13.590;2023-04-25T06:05:04;99641.34;;;9.19;75.27
15263;BME280;7733;51.554;13.590;2023-04-25T06:07:30;99645.00;;;9.52;75.01
15263;BME280;7733;51.554;13.590;2023-04-25T06:09:56;99643.47;;;9.01;75.49
15263;BME280;7733;51.554;13.590;2023-04-25T06:12:22;99643.19;;;9.13;75.91
15263;BME280;7733;51.554;13.590;2023-04-25T06:14:48;99644.88;;;9.16;74.81
15263;BME280;7733;51.554;13.590;2023-04-25T06:17:14;99647.06;;;9.37;74.80
15263;BME280;7733;51.554;13.590;2023-04-25T06:19:40;99641.41;;;9.56;75.18
15263;BME280;7733;51.554;13.590;2023-04-25T06:22:07;99638.63;;;9.65;73.09
15263;BME280;7733;51.554;13.590;2023-04-25T06:24:33;99634.28;;;9.64;72.75
15263;BME280;7733;51.554;13.590;2023-04-25T06:26:59;99634.22;;;9.67;73.05
15263;BME280;7733;51.554;13.590;2023-04-25T06:29:25;99634.00;;;9.36;72.96
15263;BME280;7733;51.554;13.590;2023-04-25T06:31:52;99640.06;;;9.38;73.15
15263;BME280;7733;51.554;13.590;2023-04-25T06:34:17;99639.31;;;9.73;73.17
15263;BME280;7733;51.554;13.590;2023-04-25T06:36:43;99641.47;;;9.93;71.94
15263;BME280;7733;51.554;13.590;2023-04-25T06:39:10;99638.50;;;9.69;73.43
15263;BME280;7733;51.554;13.590;2023-04-25T06:41:36;99650.22;;;9.92;72.90
15263;BME280;7733;51.554;13.590;2023-04-25T06:44:02;99642.53;;;9.84;71.51
15263;BME280;7733;51.554;13.590;2023-04-25T06:46:28;99653.13;;;9.78;72.15
15263;BME280;7733;51.554;13.590;2023-04-25T06:48:53;99637.84;;;9.60;72.02
15263;BME280;7733;51.554;13.590;2023-04-25T06:51:19;99651.72;;;9.65;72.08
15263;BME280;7733;51.554;13.590;2023-04-25T06:53:45;99652.59;;;10.02;71.72
15263;BME280;7733;51.554;13.590;2023-04-25T06:56:11;99653.81;;;9.88;71.92
15263;BME280;7733;51.554;13.590;2023-04-25T06:58:36;99656.75;;;10.11;71.78
15263;BME280;7733;51.554;13.590;2023-04-25T07:01:02;99643.22;;;10.29;71.55
15263;BME280;7733;51.554;13.590;2023-04-25T07:03:28;99648.59;;;10.25;71.42
15263;BME280;7733;51.554;13.590;2023-04-25T07:05:54;99651.22;;;10.25;71.46
15263;BME280;7733;51.554;13.590;2023-04-25T07:08:20;99651.44;;;10.14;71.22
15263;BME280;7733;51.554;13.590;2023-04-25T07:10:46;99656.72;;;10.13;71.62
15263;BME280;7733;51.554;13.590;2023-04-25T07:13:12;99655.19;;;10.04;71.23
15263;BME280;7733;51.554;13.590;2023-04-25T07:15:38;99640.69;;;10.26;71.14
15263;BME280;7733;51.554;13.590;2023-04-25T07:18:04;99642.56;;;10.55;70.63
15263;BME280;7733;51.554;13.590;2023-04-25T07:20:29;99646.19;;;10.84;69.78
15263;BME280;7733;51.554;13.590;2023-04-25T07:22:56;99650.50;;;10.52;69.89
15263;BME280;7733;51.554;13.590;2023-04-25T07:25:22;99657.13;;;10.33;70.53
15263;BME280;7733;51.554;13.590;2023-04-25T07:27:48;99654.38;;;10.38;68.86
15263;BME280;7733;51.554;13.590;2023-04-25T07:30:15;99655.50;;;10.63;68.47
15263;BME280;7733;51.554;13.590;2023-04-25T07:32:40;99661.63;;;10.62;69.91
15263;BME280;7733;51.554;13.590;2023-04-25T07:35:07;99664.47;;;10.87;68.40
15263;BME280;7733;51.554;13.590;2023-04-25T07:37:36;99664.69;;;10.78;70.01
15263;BME280;7733;51.554;13.590;2023-04-25T07:40:03;99663.69;;;10.83;69.38
15263;BME280;7733;51.554;13.590;2023-04-25T07:42:32;99665.03;;;10.65;69.35
15263;BME280;7733;51.554;13.590;2023-04-25T07:44:58;99667.69;;;10.96;68.52
15263;BME280;7733;51.554;13.590;2023-04-25T07:47:24;99671.09;;;10.68;69.47
15263;BME280;7733;51.554;13.590;2023-04-25T07:49:50;99671.19;;;10.97;69.15
15263;BME280;7733;51.554;13.590;2023-04-25T07:52:15;99674.56;;;11.02;68.28
15263;BME280;7733;51.554;13.590;2023-04-25T07:54:41;99682.56;;;10.96;68.53
15263;BME280;7733;51.554;13.590;2023-04-25T07:57:07;99672.03;;;10.65;69.13
15263;BME280;7733;51.554;13.590;2023-04-25T07:59:33;99683.91;;;10.78;69.08
15263;BME280;7733;51.554;13.590;2023-04-25T08:01:58;99686.91;;;10.64;69.09
15263;BME280;7733;51.554;13.590;2023-04-25T08:04:24;99678.50;;;10.86;69.61
15263;BME280;7733;51.554;13.590;2023-04-25T08:06:53;99679.66;;;10.74;68.63
15263;BME280;7733;51.554;13.590;2023-04-25T08:09:20;99693.06;;;10.63;70.64
15263;BME280;7733;51.554;13.590;2023-04-25T08:11:46;99679.88;;;10.99;69.69
15263;BME280;7733;51.554;13.590;2023-04-25T08:14:13;99690.31;;;11.01;68.78
15263;BME280;7733;51.554;13.590;2023-04-25T08:16:39;99688.56;;;11.01;68.18
15263;BME280;7733;51.554;13.590;2023-04-25T08:19:05;99691.13;;;11.04;67.64
15263;BME280;7733;51.554;13.590;2023-04-25T08:21:31;99691.31;;;10.96;68.13
15263;BME280;7733;51.554;13.590;2023-04-25T08:23:58;99689.50;;;10.98;67.68
15263;BME280;7733;51.554;13.590;2023-04-25T08:26:24;99689.97;;;10.80;68.47
15263;BME280;7733;51.554;13.590;2023-04-25T08:28:50;99692.34;;;10.91;68.55
15263;BME280;7733;51.554;13.590;2023-04-25T08:31:17;99697.69;;;10.88;68.79
15263;BME280;7733;51.554;13.590;2023-04-25T08:33:43;99699.31;;;10.92;69.31
15263;BME280;7733;51.554;13.590;2023-04-25T08:36:10;99709.31;;;11.10;67.86
15263;BME280;7733;51.554;13.590;2023-04-25T08:38:36;99702.09;;;11.18;67.23
15263;BME280;7733;51.554;13.590;2023-04-25T08:41:02;99713.66;;;11.11;67.95
15263;BME280;7733;51.554;13.590;2023-04-25T08:43:29;99715.31;;;10.83;68.38
15263;BME280;7733;51.554;13.590;2023-04-25T08:46:00;99714.97;;;10.95;67.95
15263;BME280;7733;51.554;13.590;2023-04-25T08:48:32;99716.31;;;11.10;67.91
15263;BME280;7733;51.554;13.590;2023-04-25T08:51:02;99714.44;;;10.82;68.47
15263;BME280;7733;51.554;13.590;2023-04-25T08:53:32;99722.31;;;10.81;69.19
15263;BME280;7733;51.554;13.590;2023-04-25T08:56:00;99730.09;;;10.85;70.15
15263;BME280;7733;51.554;13.590;2023-04-25T08:58:32;99735.00;;;10.97;70.51
15263;BME280;7733;51.554;13.590;2023-04-25T09:00:59;99729.25;;;10.85;70.14
15263;BME280;7733;51.554;13.590;2023-04-25T09:03:25;99730.06;;;10.87;69.56
15263;BME280;7733;51.554;13.590;2023-04-25T09:05:52;99728.75;;;10.69;69.85
15263;BME280;7733;51.554;13.590;2023-04-25T09:08:18;99739.34;;;10.66;70.48
15263;BME280;7733;51.554;13.590;2023-04-25T09:10:44;99743.56;;;10.72;70.30
15263;BME280;7733;51.554;13.590;2023-04-25T09:13:13;99742.31;;;10.86;70.37
15263;BME280;7733;51.554;13.590;2023-04-25T09:15:55;99749.81;;;10.66;70.63
15263;BME280;7733;51.554;13.590;2023-04-25T09:18:25;99747.47;;;10.89;68.92
15263;BME280;7733;51.554;13.590;2023-04-25T09:20:53;99753.81;;;10.81;68.58
15263;BME280;7733;51.554;13.590;2023-04-25T09:23:20;99763.06;;;10.61;69.20
15263;BME280;7733;51.554;13.590;2023-04-25T09:25:52;99757.72;;;10.64;69.70
15263;BME280;7733;51.554;13.590;2023-04-25T09:28:27;99761.25;;;10.63;70.23
15263;BME280;7733;51.554;13.590;2023-04-25T09:30:57;99760.13;;;10.74;71.53
15263;BME280;7733;51.554;13.590;2023-04-25T09:33:31;99767.09;;;10.75;71.59
15263;BME280;7733;51.554;13.590;2023-04-25T09:36:07;99762.28;;;10.92;71.87
15263;BME280;7733;51.554;13.590;2023-04-25T09:38:42;99771.28;;;10.82;71.19
15263;BME280;7733;51.554;13.590;2023-04-25T09:41:09;99775.56;;;10.86;70.63
15263;BME280;7733;51.554;13.590;2023-04-25T09:43:36;99775.59;;;10.84;70.43
15263;BME280;7733;51.554;13.590;2023-04-25T09:46:07;99766.41;;;11.01;70.18
15263;BME280;7733;51.554;13.590;2023-04-25T09:48:33;99772.91;;;11.20;70.06
15263;BME280;7733;51.554;13.590;2023-04-25T09:51:13;99767.06;;;11.10;69.93
15263;BME280;7733;51.554;13.590;2023-04-25T09:53:42;99771.59;;;10.70;71.05
15263;BME280;7733;51.554;13.590;2023-04-25T09:56:10;99779.34;;;10.74;72.17
15263;BME280;7733;51.554;13.590;2023-04-25T09:58:39;99780.03;;;10.81;72.03
15263;BME280;7733;51.554;13.590;2023-04-25T10:01:11;99783.22;;;10.58;73.91
15263;BME280;7733;51.554;13.590;2023-04-25T10:03:38;99790.16;;;10.60;75.00
15263;BME280;7733;51.554;13.590;2023-04-25T10:06:12;99799.09;;;10.52;75.13
15263;BME280;7733;51.554;13.590;2023-04-25T10:08:40;99808.22;;;10.35;75.32
15263;BME280;7733;51.554;13.590;2023-04-25T10:11:08;99805.84;;;10.25;76.35
15263;BME280;7733;51.554;13.590;2023-04-25T10:13:35;99802.50;;;10.55;76.25
15263;BME280;7733;51.554;13.590;2023-04-25T10:16:03;99805.84;;;10.25;76.10
15263;BME280;7733;51.554;13.590;2023-04-25T10:18:31;99823.41;;;10.21;75.50
15263;BME280;7733;51.554;13.590;2023-04-25T10:21:01;99815.09;;;10.40;75.91
15263;BME280;7733;51.554;13.590;2023-04-25T10:23:29;99808.66;;;10.54;75.25
15263;BME280;7733;51.554;13.590;2023-04-25T10:25:55;99811.25;;;10.56;75.82
15263;BME280;7733;51.554;13.590;2023-04-25T10:28:22;99814.84;;;10.52;75.61
15263;BME280;7733;51.554;13.590;2023-04-25T10:31:07;99810.25;;;10.61;74.86
15263;BME280;7733;51.554;13.590;2023-04-25T10:33:40;99812.13;;;10.92;73.82
15263;BME280;7733;51.554;13.590;2023-04-25T10:36:22;99813.69;;;10.99;73.56
15263;BME280;7733;51.554;13.590;2023-04-25T10:38:50;99804.78;;;10.71;72.07
15263;BME280;7733;51.554;13.590;2023-04-25T10:41:18;99816.31;;;10.99;72.73
15263;BME280;7733;51.554;13.590;2023-04-25T10:43:47;99819.53;;;11.10;71.15
15263;BME280;7733;51.554;13.590;2023-04-25T10:46:23;99822.28;;;11.06;71.33
15263;BME280;7733;51.554;13.590;2023-04-25T10:48:58;99825.13;;;10.59;71.67
15263;BME280;7733;51.554;13.590;2023-04-25T10:51:33;99823.88;;;10.76;71.61
15263;BME280;7733;51.554;13.590;2023-04-25T10:54:05;99828.03;;;10.49;71.60
15263;BME280;7733;51.554;13.590;2023-04-25T10:56:40;99830.41;;;10.58;71.01
15263;BME280;7733;51.554;13.590;2023-04-25T10:59:19;99828.84;;;10.88;71.22
15263;BME280;7733;51.554;13.590;2023-04-25T11:01:52;99834.69;;;10.63;70.12
15263;BME280;7733;51.554;13.590;2023-04-25T11:04:32;99830.78;;;10.80;68.78
15263;BME280;7733;51.554;13.590;2023-04-25T11:07:13;99836.19;;;10.74;67.66
15263;BME280;7733;51.554;13.590;2023-04-25T11:09:45;99839.47;;;10.45;66.13
15263;BME280;7733;51.554;13.590;2023-04-25T11:12:11;99840.56;;;10.34;65.20
15263;BME280;7733;51.554;13.590;2023-04-25T11:14:38;99847.84;;;10.60;64.63
15263;BME280;7733;51.554;13.590;2023-04-25T11:17:04;99851.25;;;10.65;63.91
15263;BME280;7733;51.554;13.590;2023-04-25T11:19:31;99846.31;;;10.89;62.81
15263;BME280;7733;51.554;13.590;2023-04-25T11:21:59;99845.78;;;11.10;63.96
15263;BME280;7733;51.554;13.590;2023-04-25T11:24:30;99847.34;;;11.17;62.49
15263;BME280;7733;51.554;13.590;2023-04-25T11:26:59;99851.00;;;11.12;62.06
15263;BME280;7733;51.554;13.590;2023-04-25T11:29:29;99841.56;;;11.39;61.90
15263;BME280;7733;51.554;13.590;2023-04-25T11:31:56;99840.53;;;11.77;63.27
15263;BME280;7733;51.554;13.590;2023-04-25T11:34:27;99841.06;;;11.57;61.51
15263;BME280;7733;51.554;13.590;2023-04-25T11:36:56;99840.97;;;11.60;59.84
15263;BME280;7733;51.554;13.590;2023-04-25T11:39:24;99841.28;;;11.49;59.01
15263;BME280;7733;51.554;13.590;2023-04-25T11:41:51;99838.81;;;11.43;58.81
15263;BME280;7733;51.554;13.590;2023-04-25T11:44:18;99852.88;;;11.42;58.35
15263;BME280;7733;51.554;13.590;2023-04-25T11:46:44;99853.16;;;11.64;57.42
15263;BME280;7733;51.554;13.590;2023-04-25T11:49:10;99852.56;;;11.53;56.98
15263;BME280;7733;51.554;13.590;2023-04-25T11:51:41;99848.88;;;11.93;56.73
15263;BME280;7733;51.554;13.590;2023-04-25T11:54:07;99854.53;;;11.77;56.15
15263;BME280;7733;51.554;13.590;2023-04-25T11:56:33;99862.00;;;11.60;56.54
15263;BME280;7733;51.554;13.590;2023-04-25T11:59:08;99853.75;;;11.41;56.44
15263;BME280;7733;51.554;13.590;2023-04-25T12:01:39;99868.44;;;11.14;57.67
15263;BME280;7733;51.554;13.590;2023-04-25T12:04:20;99858.97;;;11.43;57.74
15263;BME280;7733;51.554;13.590;2023-04-25T12:06:50;99871.66;;;11.25;56.99
15263;BME280;7733;51.554;13.590;2023-04-25T12:09:21;99876.66;;;11.35;56.23
15263;BME280;7733;51.554;13.590;2023-04-25T12:11:58;99880.38;;;11.27;56.24
15263;BME280;7733;51.554;13.590;2023-04-25T12:14:27;99879.63;;;11.22;56.44
15263;BME280;7733;51.554;13.590;2023-04-25T12:16:59;99875.56;;;11.09;56.14
15263;BME280;7733;51.554;13.590;2023-04-25T12:19:32;99880.44;;;11.24;57.27
15263;BME280;7733;51.554;13.590;2023-04-25T12:22:01;99879.53;;;11.25;57.63
15263;BME280;7733;51.554;13.590;2023-04-25T12:24:28;99882.38;;;11.16;57.23
15263;BME280;7733;51.554;13.590;2023-04-25T12:27:05;99876.53;;;11.05;56.12
15263;BME280;7733;51.554;13.590;2023-04-25T12:29:33;99874.97;;;10.96;57.21
15263;BME280;7733;51.554;13.590;2023-04-25T12:32:00;99883.31;;;11.14;56.93
15263;BME280;7733;51.554;13.590;2023-04-25T12:34:28;99881.56;;;11.14;56.78
15263;BME280;7733;51.554;13.590;2023-04-25T12:36:54;99889.28;;;11.20;58.10
15263;BME280;7733;51.554;13.590;2023-04-25T12:39:24;99885.28;;;11.40;58.10
15263;BME280;7733;51.554;13.590;2023-04-25T12:41:52;99888.28;;;11.26;58.38
15263;BME280;7733;51.554;13.590;2023-04-25T12:44:22;99892.66;;;11.25;56.97
15263;BME280;7733;51.554;13.590;2023-04-25T12:46:48;99884.25;;;11.11;56.31
15263;BME280;7733;51.554;13.590;2023-04-25T12:49:14;99874.81;;;11.72;55.44
15263;BME280;7733;51.554;13.590;2023-04-25T12:51:40;99880.75;;;11.80;52.96
15263;BME280;7733;51.554;13.590;2023-04-25T12:54:07;99886.06;;;11.77;54.53
15263;BME280;7733;51.554;13.590;2023-04-25T12:56:34;99886.97;;;11.44;53.13
15263;BME280;7733;51.554;13.590;2023-04-25T12:59:00;99887.16;;;11.35;54.09
15263;BME280;7733;51.554;13.590;2023-04-25T13:01:28;99896.84;;;11.33;54.99
15263;BME280;7733;51.554;13.590;2023-04-25T13:03:55;99900.47;;;11.28;55.04
15263;BME280;7733;51.554;13.590;2023-04-25T13:06:21;99896.16;;;11.26;54.07